Sykesville, Maryland
Current Conditions -  °F | °C
As of 4:05 PM on Tuesday 25 Nov 2014 (Local Time) from KDMW Reporting Station
Clear Clear  
Wind Chill: 54°   Ceiling: Unl
Heat Index: 54°   Visibility: 10mi
Dew Point: 28°   Wind: 5mph
Humidity: 38%   Direction: 270°W
Pressure: 30.03"   Gusts: NA
Location:  39.37°N, 76.97°W
Report Text: KDMW 252105Z AUTO 27004KT 10SM CLR 12/M02 A3003 RMK AO2
Loading
Personal Weather Stations






























Interactive Weather Map New forecast layout! Learn more

10-Day Weather Forecast

Advertisements
Track Severe Weather on mobile